Date,TemperatureHighF,TemperatureAvgF,TemperatureLowF,DewpointHighF,DewpointAvgF,DewpointLowF,HumidityHigh,HumidityAvg,HumidityLow,PressureMaxIn,PressureMinIn,WindSpeedMaxMPH,WindSpeedAvgMPH,GustSpeedMaxMPH,PrecipitationSumIn
2013-3-1,36.2,32.6,30.5,33.3,30.5,28.2,95,92,88,30.15,30.04,16,5,16,0.08
2013-3-2,33.4,29.8,26.4,28.1,24.5,20.6,91,81,63,30.22,30.13,21,8,21,0.00
2013-3-3,38.7,30.9,20.1,25.4,21.5,17.4,91,69,48,30.21,30.08,14,1,14,0.00
2013-3-4,52.6,43.8,34.6,36.9,30.7,25.3,74,61,44,30.09,29.77,27,2,27,0.00
2013-3-5,46.3,37.4,31.7,38.4,31.9,24.5,94,80,66,30.05,29.75,34,9,38,0.12
2013-3-6,38.0,34.1,30.6,29.7,27.0,24.8,82,75,68,30.35,30.05,32,9,34,0.00
2013-3-7,48.6,34.5,25.0,33.5,27.8,22.1,92,77,53,30.43,30.33,15,2,15,0.00
2013-3-8,55.9,40.6,26.3,36.1,30.5,24.0,93,69,42,30.46,30.24,16,1,16,0.00
2013-3-9,66.7,52.8,41.1,39.2,35.2,30.9,71,53,34,30.24,29.86,30,5,30,0.00
2013-3-10,65.3,57.1,48.7,53.1,46.5,36.3,95,70,42,29.86,29.65,39,11,39,0.38
2013-3-11,50.3,39.9,35.9,49.2,35.9,29.3,96,86,76,30.00,29.66,24,6,24,0.00
2013-3-12,50.2,38.9,29.7,31.5,27.7,22.4,86,66,43,30.19,29.99,26,6,26,0.00
2013-3-13,40.3,33.8,26.5,26.7,22.6,18.6,82,64,50,30.42,30.18,32,9,32,0.00
2013-3-14,44.2,33.4,22.5,32.0,26.0,20.0,92,75,52,30.42,30.13,22,4,22,0.00
2013-3-15,72.4,50.8,27.9,53.8,40.0,25.6,94,70,38,30.13,29.68,26,4,26,0.00
2013-3-16,65.9,51.9,39.2,51.5,43.8,34.8,85,74,59,30.01,29.65,26,10,26,0.00
2013-3-17,39.2,36.4,32.9,36.9,34.6,31.4,95,93,84,30.08,29.77,30,6,30,2.94
2013-3-18,47.3,41.9,37.6,42.2,38.7,34.2,97,89,74,29.98,29.63,24,4,24,0.36
2013-3-19,48.3,39.1,29.3,34.2,24.8,16.2,81,58,30,30.21,29.98,21,5,21,0.00
2013-3-20,36.7,32.2,25.6,29.2,22.8,16.5,87,69,49,30.25,30.11,30,8,30,0.00
2013-3-21,38.4,29.1,20.8,22.6,18.4,15.4,83,65,46,30.14,30.00,15,2,15,0.00
2013-3-22,44.6,36.8,31.6,27.2,24.4,21.2,72,61,46,30.06,29.99,18,0,18,0.00
2013-3-23,57.1,45.9,37.3,37.0,31.2,25.3,70,57,42,30.03,29.77,20,4,20,0.01
2013-3-24,46.1,35.9,32.3,37.7,33.3,30.5,95,90,71,29.78,29.43,33,9,33,0.29
2013-3-25,36.7,33.0,30.9,31.4,29.2,27.4,94,86,74,30.17,29.74,33,12,33,0.05
2013-3-26,41.4,35.0,27.9,32.7,27.4,24.0,89,74,58,30.36,30.16,21,6,21,0.00
2013-3-27,49.8,36.3,23.1,32.5,27.1,21.0,94,71,48,30.42,30.30,14,1,14,0.01
2013-3-28,59.9,46.7,36.1,39.2,33.1,27.5,74,60,41,30.39,30.24,15,0,15,0.00
2013-3-29,56.2,48.5,40.9,48.4,43.5,35.8,92,83,64,30.28,30.18,14,1,14,0.16
2013-3-30,58.1,47.1,36.1,47.7,43.2,34.4,97,87,66,30.21,29.91,20,2,20,0.18
2013-3-31,66.0,54.7,48.1,52.7,47.2,41.6,96,78,46,29.92,29.83,20,2,20,0.00